Aledo, Illinois
Current Conditions -  °F | °C
As of 11:52 PM on Thursday 27 Nov 2014 (Local Time) from KMLI Reporting Station
Overcast Overcast  
Wind Chill: 13°   Ceiling: 7000
Heat Index: 13°   Visibility: 10mi
Dew Point:   Wind: 0mph
Humidity: 74%   Direction: NA
Pressure: 30.39"   Gusts: NA
Location:  41.2°N, 90.75°W
Report Text: KMLI 280552Z AUTO 00000KT 10SM BKN070 OVC090 M11/M14 A3039 RMK AO2 SLP303 T11061144 11094 21128 410331128 58005 $
Loading
Personal Weather Stations






























Interactive Weather Map New forecast layout! Learn more

10-Day Weather Forecast

Advertisements
Track Severe Weather on mobile